createdAt,value
2024-05-09T00:01:57.275Z,74.10
2024-05-09T00:04:27.631Z,74.10
2024-05-09T00:07:00.628Z,74.10
2024-05-09T00:09:30.819Z,74.40
2024-05-09T00:12:01.200Z,74.70
2024-05-09T00:14:31.590Z,74.80
2024-05-09T00:17:01.897Z,74.80
2024-05-09T00:19:32.433Z,74.90
2024-05-09T00:22:05.422Z,74.80
2024-05-09T00:24:53.974Z,75.00
2024-05-09T00:27:24.267Z,75.50
2024-05-09T00:29:54.418Z,75.60
2024-05-09T00:32:24.737Z,75.90
2024-05-09T00:34:55.235Z,75.90
2024-05-09T00:37:25.458Z,75.90
2024-05-09T00:39:58.271Z,76.00
2024-05-09T00:42:28.539Z,76.00
2024-05-09T00:44:58.833Z,76.20
2024-05-09T00:47:29.293Z,76.40
2024-05-09T00:49:59.670Z,76.80
2024-05-09T00:52:31.130Z,76.90
2024-05-09T00:55:04.738Z,77.00
2024-05-09T00:57:35.364Z,77.20
2024-05-09T01:00:07.826Z,77.20
2024-05-09T01:02:42.360Z,77.40
2024-05-09T01:05:12.891Z,77.60
2024-05-09T01:07:43.263Z,77.90
2024-05-09T01:10:21.244Z,77.90
2024-05-09T01:12:57.921Z,78.10
2024-05-09T01:15:28.249Z,78.20
2024-05-09T01:17:59.135Z,78.20
2024-05-09T01:20:39.602Z,78.40
2024-05-09T01:23:16.792Z,78.50
2024-05-09T01:25:47.450Z,78.70
2024-05-09T01:28:17.856Z,79.00
2024-05-09T01:30:48.197Z,79.10
2024-05-09T01:33:18.543Z,79.40
2024-05-09T01:35:48.900Z,79.40
2024-05-09T01:38:21.872Z,79.40
2024-05-09T01:40:52.620Z,79.80
2024-05-09T01:43:22.866Z,79.90
2024-05-09T01:45:53.136Z,79.80
2024-05-09T01:48:23.422Z,80.20
2024-05-09T01:50:53.793Z,80.40
2024-05-09T01:53:26.803Z,80.60
2024-05-09T01:56:00.105Z,80.90
2024-05-09T01:58:31.293Z,80.90
2024-05-09T02:01:03.447Z,81.00
2024-05-09T02:03:35.014Z,81.00
2024-05-09T02:06:05.658Z,81.20
2024-05-09T02:08:38.786Z,81.30
2024-05-09T02:11:10.675Z,81.70
2024-05-09T02:13:41.046Z,81.90
2024-05-09T02:16:15.085Z,81.90
2024-05-09T02:18:45.342Z,82.00
2024-05-09T02:21:15.940Z,82.00
2024-05-09T02:23:48.767Z,82.70
2024-05-09T02:26:19.068Z,81.90
2024-05-09T02:28:49.414Z,81.90
2024-05-09T02:31:19.749Z,82.10
2024-05-09T02:33:50.335Z,82.40
2024-05-09T02:36:18.191Z,82.60
2024-05-09T02:38:51.068Z,82.70
2024-05-09T02:41:18.774Z,83.00
2024-05-09T02:43:48.986Z,82.90
2024-05-09T02:46:16.584Z,82.90
2024-05-09T02:48:49.997Z,82.90
2024-05-09T02:51:20.625Z,83.30
2024-05-09T02:53:53.554Z,83.10
2024-05-09T02:56:21.291Z,83.40
2024-05-09T02:58:51.478Z,83.50
2024-05-09T03:01:20.215Z,84.30
2024-05-09T03:03:51.539Z,83.90
2024-05-09T03:06:19.364Z,84.10
2024-05-09T03:08:52.941Z,84.30
2024-05-09T03:11:23.922Z,84.40
2024-05-09T03:13:54.607Z,84.50
2024-05-09T03:16:22.212Z,84.50
2024-05-09T03:18:52.609Z,84.40
2024-05-09T03:21:22.164Z,84.60
2024-05-09T03:23:55.172Z,84.90
2024-05-09T03:26:22.807Z,84.70
2024-05-09T03:28:53.234Z,84.60
2024-05-09T03:31:20.869Z,84.70
2024-05-09T03:33:52.388Z,84.70
2024-05-09T03:36:20.032Z,85.00
2024-05-09T03:38:51.487Z,85.00
2024-05-09T03:41:22.694Z,85.20
2024-05-09T03:43:53.071Z,85.40
2024-05-09T03:46:20.642Z,85.70
2024-05-09T03:48:50.978Z,85.70
2024-05-09T03:51:21.327Z,85.60
2024-05-09T03:53:50.610Z,85.60
2024-05-09T03:56:20.911Z,85.60
2024-05-09T03:58:51.319Z,85.90
2024-05-09T04:01:21.706Z,86.00
2024-05-09T04:03:49.528Z,86.00
2024-05-09T04:06:26.270Z,86.00
2024-05-09T04:08:54.063Z,85.80
2024-05-09T04:11:27.601Z,85.80
2024-05-09T04:13:57.953Z,85.90
2024-05-09T04:16:28.502Z,86.10
2024-05-09T04:18:56.168Z,86.10
2024-05-09T04:21:26.450Z,86.20
2024-05-09T04:23:54.090Z,86.80
2024-05-09T04:26:24.307Z,86.10
2024-05-09T04:28:52.098Z,85.80
2024-05-09T04:31:25.101Z,85.50
2024-05-09T04:33:53.007Z,86.00
2024-05-09T04:36:23.434Z,87.20
2024-05-09T04:38:51.088Z,87.80
2024-05-09T04:41:21.348Z,87.50
2024-05-09T04:43:51.015Z,86.90
2024-05-09T04:46:21.326Z,85.90
2024-05-09T04:48:51.762Z,84.90
2024-05-09T04:51:22.182Z,82.50
2024-05-09T04:53:49.870Z,80.80
2024-05-09T04:56:20.161Z,78.40
2024-05-09T04:58:47.813Z,75.80
2024-05-09T05:01:18.888Z,73.50
2024-05-09T05:03:46.775Z,71.20
2024-05-09T05:06:19.868Z,69.30
2024-05-09T05:11:18.142Z,65.00
2024-05-09T05:13:45.874Z,65.20
2024-05-09T05:16:16.248Z,63.70
2024-05-09T05:18:46.341Z,63.00
2024-05-09T05:21:19.586Z,61.00
2024-05-09T05:23:47.369Z,61.20
2024-05-09T05:26:20.464Z,61.90
2024-05-09T05:28:48.307Z,61.60
2024-05-09T05:31:18.751Z,61.10
2024-05-09T05:33:48.800Z,60.20
2024-05-09T05:36:21.816Z,59.80
2024-05-09T05:38:49.739Z,59.90
2024-05-09T05:41:20.166Z,60.30
2024-05-09T05:43:47.725Z,77.80
2024-05-09T05:46:17.966Z,85.50
2024-05-09T05:48:45.633Z,74.20
2024-05-09T05:51:16.039Z,62.60
2024-05-09T05:53:46.550Z,63.10
2024-05-09T05:56:16.845Z,63.60
2024-05-09T05:58:44.617Z,64.30
2024-05-09T06:01:14.915Z,64.90
2024-05-09T06:03:42.670Z,65.30
2024-05-09T06:06:13.129Z,65.60
2024-05-09T06:08:40.924Z,66.20
2024-05-09T06:11:14.039Z,67.00
2024-05-09T06:13:43.290Z,66.50
2024-05-09T06:16:13.550Z,66.90
2024-05-09T06:18:41.214Z,67.10
2024-05-09T06:21:11.495Z,67.30
2024-05-09T06:23:46.531Z,67.40
2024-05-09T06:26:19.550Z,67.80
2024-05-09T06:28:47.287Z,68.30
2024-05-09T06:31:19.078Z,68.60
2024-05-09T06:33:46.906Z,68.90
2024-05-09T06:36:17.399Z,69.40
2024-05-09T06:38:45.089Z,69.50
2024-05-09T06:41:18.160Z,69.50
2024-05-09T06:43:45.939Z,69.40
2024-05-09T06:46:16.199Z,69.70
2024-05-09T06:48:44.227Z,70.10
2024-05-09T06:51:14.876Z,70.40
2024-05-09T06:53:42.671Z,70.90
2024-05-09T06:56:12.850Z,70.80
2024-05-09T06:58:43.033Z,71.10
2024-05-09T07:01:13.259Z,71.40
2024-05-09T07:03:42.250Z,71.30
2024-05-09T07:06:12.648Z,71.50
2024-05-09T07:08:41.175Z,71.70
2024-05-09T07:11:11.583Z,71.80
2024-05-09T07:13:39.256Z,71.70
2024-05-09T07:16:12.220Z,71.60
2024-05-09T07:18:40.045Z,71.40
2024-05-09T07:21:11.707Z,71.30
2024-05-09T07:23:39.543Z,70.90
2024-05-09T07:26:13.026Z,70.90
2024-05-09T07:28:40.811Z,70.50
2024-05-09T07:31:15.191Z,69.60
2024-05-09T07:33:42.910Z,68.90
2024-05-09T07:36:13.206Z,68.20
2024-05-09T07:38:40.844Z,67.50
2024-05-09T07:41:11.286Z,67.00
2024-05-09T07:43:38.860Z,66.30
2024-05-09T07:47:13.919Z,66.30
2024-05-09T07:50:35.823Z,66.50
2024-05-09T07:53:20.459Z,66.60
2024-05-09T07:54:43.580Z,66.40
2024-05-09T07:57:11.579Z,66.20
2024-05-09T07:59:42.505Z,65.90
2024-05-09T08:02:10.281Z,65.70
2024-05-09T08:04:43.308Z,65.80
2024-05-09T08:07:11.059Z,65.80
2024-05-09T08:09:41.357Z,65.70
2024-05-09T08:12:09.503Z,65.50
2024-05-09T08:14:39.724Z,65.60
2024-05-09T08:17:07.774Z,65.40
2024-05-09T08:19:38.543Z,65.30
2024-05-09T08:22:11.407Z,65.10
2024-05-09T08:24:41.718Z,65.60
2024-05-09T08:27:09.374Z,65.10
2024-05-09T08:29:39.913Z,64.50
2024-05-09T08:32:12.897Z,64.20
2024-05-09T08:34:44.229Z,63.20
2024-05-09T08:37:21.451Z,62.10
2024-05-09T08:39:54.041Z,61.50
2024-05-09T08:42:24.566Z,61.00
2024-05-09T08:44:55.615Z,60.30
2024-05-09T08:47:23.795Z,59.70
2024-05-09T08:49:58.739Z,59.70
2024-05-09T08:52:29.159Z,59.40
2024-05-09T08:54:59.354Z,59.50
2024-05-09T08:57:28.953Z,59.50
2024-05-09T09:00:09.924Z,59.40
2024-05-09T09:02:41.981Z,59.50
2024-05-09T09:05:16.926Z,59.60
2024-05-09T09:07:48.686Z,59.80
2024-05-09T09:10:28.995Z,59.90
2024-05-09T09:13:04.997Z,59.70
2024-05-09T09:15:35.699Z,59.20
2024-05-09T09:18:03.720Z,59.20
2024-05-09T09:20:36.747Z,59.10
2024-05-09T09:23:09.004Z,59.00
2024-05-09T09:25:42.368Z,58.90
2024-05-09T09:28:10.353Z,58.90
2024-05-09T09:30:42.739Z,58.70
2024-05-09T09:33:12.098Z,58.40
2024-05-09T09:35:45.880Z,58.20
2024-05-09T09:38:20.880Z,58.20
2024-05-09T09:40:52.416Z,57.90
2024-05-09T09:43:22.518Z,57.60
2024-05-09T09:46:32.487Z,57.40
2024-05-09T09:49:03.655Z,57.30
2024-05-09T09:51:35.906Z,57.20
2024-05-09T09:54:08.203Z,57.10
2024-05-09T09:56:41.841Z,56.80
2024-05-09T09:59:13.426Z,56.60
2024-05-09T10:01:44.268Z,56.30
2024-05-09T10:04:16.162Z,56.10
2024-05-09T10:06:52.782Z,56.20
2024-05-09T10:09:23.872Z,56.30
2024-05-09T10:12:00.145Z,56.00
2024-05-09T10:14:31.021Z,56.00
2024-05-09T10:17:08.456Z,55.80
2024-05-09T10:19:36.107Z,55.10
2024-05-09T10:22:09.037Z,55.10
2024-05-09T10:24:51.359Z,54.90
2024-05-09T10:27:30.130Z,54.70
2024-05-09T10:29:59.491Z,54.70
2024-05-09T10:32:32.791Z,55.10
2024-05-09T10:35:01.274Z,55.10
2024-05-09T10:37:31.926Z,55.20
2024-05-09T10:40:05.432Z,55.10
2024-05-09T10:42:37.796Z,55.10
2024-05-09T10:45:06.507Z,55.30
2024-05-09T10:47:40.794Z,55.70
2024-05-09T10:50:18.263Z,55.70
2024-05-09T10:52:56.385Z,55.80
2024-05-09T10:55:27.657Z,55.90
2024-05-09T10:57:58.078Z,55.70
2024-05-09T11:00:35.750Z,55.50
2024-05-09T11:03:07.391Z,55.20
2024-05-09T11:05:36.384Z,55.30
2024-05-09T11:08:07.763Z,55.40
2024-05-09T11:10:41.399Z,55.20
2024-05-09T11:13:09.245Z,55.20
2024-05-09T11:15:42.964Z,55.10
2024-05-09T11:18:26.622Z,54.70
2024-05-09T11:20:56.995Z,54.30
2024-05-09T11:23:30.629Z,54.10
2024-05-09T11:26:01.084Z,53.50
2024-05-09T11:28:34.418Z,53.00
2024-05-09T11:31:07.278Z,52.70
2024-05-09T11:33:40.729Z,52.70
2024-05-09T11:36:09.679Z,52.30
2024-05-09T11:38:40.248Z,52.10
2024-05-09T11:41:20.535Z,52.50
2024-05-09T11:43:48.114Z,52.70
2024-05-09T11:46:18.844Z,53.00
2024-05-09T11:48:46.729Z,52.60
2024-05-09T11:51:17.349Z,52.40
2024-05-09T11:53:44.980Z,52.60
2024-05-09T11:56:18.062Z,52.70
2024-05-09T11:58:45.779Z,52.50
2024-05-09T12:01:16.032Z,52.40
2024-05-09T12:03:43.912Z,52.30
2024-05-09T12:06:14.756Z,51.90
2024-05-09T12:08:42.662Z,51.90
2024-05-09T12:11:13.920Z,52.00
2024-05-09T12:13:44.267Z,52.30
2024-05-09T12:16:14.773Z,52.20
2024-05-09T12:18:42.503Z,52.50
2024-05-09T12:21:17.116Z,52.60
2024-05-09T12:23:44.667Z,52.50
2024-05-09T12:26:15.957Z,52.30
2024-05-09T12:28:46.382Z,52.00
2024-05-09T12:31:16.682Z,52.20
2024-05-09T12:33:44.459Z,52.10
2024-05-09T12:36:14.884Z,52.20
2024-05-09T12:38:42.437Z,52.20
2024-05-09T12:41:13.315Z,52.40
2024-05-09T12:43:40.904Z,52.70
2024-05-09T12:46:13.935Z,52.80
2024-05-09T12:48:44.420Z,52.60
2024-05-09T12:51:12.290Z,52.50
2024-05-09T12:53:42.575Z,52.60
2024-05-09T12:56:10.328Z,52.50
2024-05-09T12:58:41.177Z,52.60
2024-05-09T13:01:11.487Z,53.00
2024-05-09T13:03:41.992Z,52.80
2024-05-09T13:06:09.976Z,52.70
2024-05-09T13:08:40.338Z,52.70
2024-05-09T13:11:07.991Z,52.60
2024-05-09T13:13:39.270Z,52.30
2024-05-09T13:16:07.424Z,52.10
2024-05-09T13:18:40.699Z,52.40
2024-05-09T13:21:08.405Z,52.20
2024-05-09T13:23:38.710Z,52.40
2024-05-09T13:26:06.370Z,52.50
2024-05-09T13:28:36.795Z,52.40
2024-05-09T13:31:04.652Z,52.20
2024-05-09T13:33:35.799Z,52.30
2024-05-09T13:36:07.782Z,52.20
2024-05-09T13:38:40.314Z,52.40
2024-05-09T13:41:08.596Z,52.40
2024-05-09T13:43:39.011Z,52.70
2024-05-09T13:46:06.808Z,52.50
2024-05-09T13:48:37.603Z,51.90
2024-05-09T13:51:08.235Z,52.00
2024-05-09T13:53:38.541Z,51.90
2024-05-09T13:56:08.815Z,52.00
2024-05-09T13:58:39.610Z,51.80
2024-05-09T14:01:07.357Z,51.50
2024-05-09T14:03:37.918Z,51.40
2024-05-09T14:06:11.274Z,51.50
2024-05-09T14:08:43.288Z,51.60
2024-05-09T14:11:10.996Z,51.80
2024-05-09T14:13:41.206Z,51.70
2024-05-09T14:16:11.921Z,51.60
2024-05-09T14:18:39.627Z,51.50
2024-05-09T14:21:12.645Z,51.30
2024-05-09T14:23:40.266Z,51.10
2024-05-09T14:26:10.562Z,51.20
2024-05-09T14:28:38.200Z,50.80
2024-05-09T14:31:08.690Z,50.30
2024-05-09T14:33:37.302Z,50.30
2024-05-09T14:36:08.214Z,50.60
2024-05-09T14:38:38.518Z,50.80
2024-05-09T14:41:09.562Z,51.60
2024-05-09T14:43:37.125Z,50.90
2024-05-09T14:46:07.903Z,50.90
2024-05-09T14:48:36.541Z,50.80
2024-05-09T14:51:07.100Z,50.80
2024-05-09T14:53:34.789Z,50.80
2024-05-09T14:56:09.012Z,50.80
2024-05-09T14:58:36.702Z,50.80
2024-05-09T15:01:07.256Z,50.90
2024-05-09T15:03:35.058Z,50.90
2024-05-09T15:06:05.575Z,51.00
2024-05-09T15:08:33.531Z,50.90
2024-05-09T15:11:06.655Z,50.50
2024-05-09T15:13:34.429Z,50.20
2024-05-09T15:16:04.940Z,50.20
2024-05-09T15:18:32.799Z,50.30
2024-05-09T15:21:03.211Z,49.70
2024-05-09T15:23:30.853Z,49.40
2024-05-09T15:26:01.374Z,49.40
2024-05-09T15:28:32.842Z,49.30
2024-05-09T15:31:03.086Z,49.30
2024-05-09T15:33:30.779Z,49.30
2024-05-09T15:36:01.288Z,49.40
2024-05-09T15:38:30.482Z,49.50
2024-05-09T15:41:00.728Z,49.50
2024-05-09T15:43:31.230Z,49.50
2024-05-09T15:46:01.690Z,49.30
2024-05-09T15:48:29.509Z,49.10
2024-05-09T15:51:00.024Z,49.10
2024-05-09T15:53:27.706Z,49.30
2024-05-09T15:55:58.182Z,49.50
2024-05-09T15:58:26.354Z,49.70
2024-05-09T16:00:59.857Z,49.70
2024-05-09T16:03:28.370Z,49.80
2024-05-09T16:05:59.050Z,49.80
2024-05-09T16:08:26.865Z,49.90
2024-05-09T16:10:57.278Z,49.90
2024-05-09T16:13:25.026Z,50.10
2024-05-09T16:15:58.187Z,50.40
2024-05-09T16:18:26.237Z,50.70
2024-05-09T16:21:00.339Z,50.90
2024-05-09T16:23:28.300Z,50.80
2024-05-09T16:25:59.714Z,50.70
2024-05-09T16:28:27.526Z,50.70
2024-05-09T16:31:01.497Z,50.70
2024-05-09T16:33:29.511Z,50.70
2024-05-09T16:36:00.884Z,50.70
2024-05-09T16:38:28.475Z,50.70
2024-05-09T16:40:58.856Z,50.80
2024-05-09T16:43:27.166Z,50.80
2024-05-09T16:46:00.348Z,50.90
2024-05-09T16:48:27.974Z,51.00
2024-05-09T16:50:58.165Z,50.90
2024-05-09T16:53:26.357Z,50.90
2024-05-09T16:55:56.795Z,51.00
2024-05-09T16:58:25.036Z,51.00
2024-05-09T17:00:55.473Z,51.10
2024-05-09T17:03:25.918Z,51.20
2024-05-09T17:05:56.673Z,51.40
2024-05-09T17:08:24.644Z,51.60
2024-05-09T17:10:55.653Z,51.90
2024-05-09T17:13:29.141Z,52.20
2024-05-09T17:15:59.589Z,52.50
2024-05-09T17:18:32.620Z,52.50
2024-05-09T17:21:00.393Z,52.50
2024-05-09T17:23:32.624Z,52.50
2024-05-09T17:26:02.533Z,52.50
2024-05-09T17:28:33.052Z,52.50
2024-05-09T17:31:00.771Z,52.60
2024-05-09T17:33:33.830Z,52.60
2024-05-09T17:36:01.735Z,52.60
2024-05-09T17:38:31.939Z,52.70
2024-05-09T17:40:59.655Z,52.90
2024-05-09T17:43:30.284Z,52.90
2024-05-09T17:45:58.131Z,52.80
2024-05-09T17:48:28.707Z,52.70
2024-05-09T17:50:59.080Z,52.70
2024-05-09T17:53:29.318Z,52.70
2024-05-09T17:55:57.015Z,52.80
2024-05-09T17:58:27.448Z,52.90
2024-05-09T18:00:55.317Z,53.00
2024-05-09T18:03:26.092Z,53.10
2024-05-09T18:05:53.993Z,53.40
2024-05-09T18:08:27.049Z,53.40
2024-05-09T18:10:55.572Z,53.40
2024-05-09T18:13:26.399Z,53.60
2024-05-09T18:15:54.181Z,53.90
2024-05-09T18:18:24.769Z,53.90
2024-05-09T18:20:52.730Z,54.00
2024-05-09T18:23:23.298Z,54.10
2024-05-09T18:25:55.060Z,54.20
2024-05-09T18:28:26.026Z,54.30
2024-05-09T18:30:53.717Z,54.50
2024-05-09T18:33:24.589Z,54.50
2024-05-09T18:35:52.549Z,54.70
2024-05-09T18:38:25.671Z,54.80
2024-05-09T18:40:56.019Z,54.90
2024-05-09T18:43:31.414Z,55.10
2024-05-09T18:46:06.166Z,55.30
2024-05-09T18:48:36.932Z,55.20
2024-05-09T18:51:05.706Z,55.40
2024-05-09T18:53:36.031Z,55.50
2024-05-09T18:56:08.019Z,55.80
2024-05-09T18:58:38.262Z,56.00
2024-05-09T19:01:06.383Z,56.00
2024-05-09T19:03:37.152Z,56.20
2024-05-09T19:06:05.729Z,56.40
2024-05-09T19:08:36.081Z,56.50
2024-05-09T19:11:06.567Z,56.70
2024-05-09T19:13:36.933Z,56.90
2024-05-09T19:16:05.790Z,57.00
2024-05-09T19:18:36.859Z,57.20
2024-05-09T19:21:05.085Z,57.20
2024-05-09T19:23:38.133Z,57.10
2024-05-09T19:26:11.114Z,57.90
2024-05-09T19:28:41.327Z,57.60
2024-05-09T19:31:08.960Z,57.60
2024-05-09T19:33:39.426Z,57.70
2024-05-09T19:36:08.204Z,57.80
2024-05-09T19:38:39.495Z,58.00
2024-05-09T19:41:07.052Z,58.00
2024-05-09T19:43:39.895Z,58.30
2024-05-09T19:46:07.585Z,58.50
2024-05-09T19:48:38.057Z,58.50
2024-05-09T19:51:06.167Z,58.70
2024-05-09T19:53:36.436Z,58.90
2024-05-09T19:56:04.451Z,59.10
2024-05-09T19:58:34.761Z,59.20
2024-05-09T20:01:05.482Z,59.50
2024-05-09T20:03:37.243Z,59.50
2024-05-09T20:06:05.414Z,59.80
2024-05-09T20:08:35.905Z,60.10
2024-05-09T20:11:03.977Z,60.20
2024-05-09T20:13:34.220Z,60.40
2024-05-09T20:16:05.293Z,60.70
2024-05-09T20:18:35.794Z,61.10
2024-05-09T20:21:03.759Z,61.40
2024-05-09T20:23:34.125Z,61.50
2024-05-09T20:26:01.871Z,61.50
2024-05-09T20:28:33.691Z,61.70
2024-05-09T20:31:04.092Z,61.90
2024-05-09T20:33:34.557Z,62.10
2024-05-09T20:36:02.744Z,62.30
2024-05-09T20:38:33.041Z,62.50
2024-05-09T20:41:00.834Z,62.60
2024-05-09T20:43:31.264Z,62.80
2024-05-09T20:45:58.934Z,62.90
2024-05-09T20:48:31.916Z,63.10
2024-05-09T20:50:59.632Z,63.10
2024-05-09T20:53:29.878Z,63.20
2024-05-09T20:55:57.520Z,63.40
2024-05-09T20:58:27.756Z,63.40
2024-05-09T21:00:55.603Z,63.40
2024-05-09T21:03:25.965Z,63.80
2024-05-09T21:05:56.334Z,63.30
2024-05-09T21:08:27.002Z,63.50
2024-05-09T21:10:54.876Z,63.60
2024-05-09T21:13:25.306Z,63.60
2024-05-09T21:15:54.256Z,63.50
2024-05-09T21:18:24.661Z,64.70
2024-05-09T21:20:52.343Z,63.70
2024-05-09T21:23:25.240Z,63.70
2024-05-09T21:25:53.102Z,63.60
2024-05-09T21:28:23.534Z,63.60
2024-05-09T21:30:53.775Z,63.70
2024-05-09T21:33:24.153Z,63.80
2024-05-09T21:35:51.797Z,64.00
2024-05-09T21:38:24.790Z,64.30
2024-05-09T21:40:52.570Z,64.40
2024-05-09T21:43:23.014Z,64.40
2024-05-09T21:45:50.729Z,64.40
2024-05-09T21:48:20.984Z,64.50
2024-05-09T21:50:48.574Z,64.70
2024-05-09T21:53:18.874Z,64.60
2024-05-09T21:55:49.204Z,64.80
2024-05-09T21:58:19.541Z,65.10
2024-05-09T22:00:47.359Z,65.20
2024-05-09T22:03:18.077Z,65.30
2024-05-09T22:05:45.910Z,65.30
2024-05-09T22:08:16.296Z,65.40
2024-05-09T22:10:44.501Z,65.40
2024-05-09T22:13:20.400Z,65.20
2024-05-09T22:15:48.219Z,65.10
2024-05-09T22:18:18.568Z,65.20
2024-05-09T22:20:46.916Z,65.50
2024-05-09T22:23:18.285Z,65.90
2024-05-09T22:25:48.851Z,66.30
2024-05-09T22:28:22.897Z,66.70
2024-05-09T22:30:51.864Z,66.90
2024-05-09T22:33:22.320Z,67.20
2024-05-09T22:35:51.239Z,67.60
2024-05-09T22:38:21.487Z,68.10
2024-05-09T22:40:50.145Z,68.10
2024-05-09T22:43:25.547Z,68.30
2024-05-09T22:45:56.334Z,68.60
2024-05-09T22:48:27.080Z,69.00
2024-05-09T22:50:55.251Z,68.90
2024-05-09T22:53:26.561Z,69.10
2024-05-09T22:55:54.489Z,69.40
2024-05-09T22:58:27.527Z,69.60
2024-05-09T23:00:57.957Z,69.80
2024-05-09T23:03:28.466Z,70.20
2024-05-09T23:05:56.112Z,70.10
2024-05-09T23:08:26.288Z,70.20
2024-05-09T23:10:54.059Z,70.40
2024-05-09T23:13:47.927Z,70.60
2024-05-09T23:16:20.661Z,72.00
2024-05-09T23:19:37.806Z,71.00
2024-05-09T23:22:08.100Z,72.00
2024-05-09T23:25:17.530Z,71.20
2024-05-09T23:27:56.821Z,72.20
2024-05-09T23:30:43.122Z,71.40
2024-05-09T23:33:16.504Z,71.80
2024-05-09T23:36:00.081Z,71.90
2024-05-09T23:38:31.861Z,72.00
2024-05-09T23:41:17.225Z,72.00
2024-05-09T23:43:48.966Z,72.30
2024-05-09T23:46:22.011Z,72.50
2024-05-09T23:48:51.559Z,72.80
2024-05-09T23:51:21.970Z,72.90
2024-05-09T23:53:49.573Z,73.00
2024-05-09T23:56:23.887Z,73.20
2024-05-09T23:58:51.744Z,73.30
